sensor_id;sensor_type;location;lat;lon;timestamp;P1;durP1;ratioP1;P2;durP2;ratioP2
26375;SDS011;30544;42.196;24.336;2022-09-01T00:00:39;38.13;;;28.15;;
26375;SDS011;30544;42.196;24.336;2022-09-01T00:03:13;40.58;;;30.95;;
26375;SDS011;30544;42.196;24.336;2022-09-01T00:05:40;36.58;;;27.98;;
26375;SDS011;30544;42.196;24.336;2022-09-01T00:08:08;39.72;;;28.30;;
26375;SDS011;30544;42.196;24.336;2022-09-01T00:10:35;40.90;;;30.30;;
26375;SDS011;30544;42.196;24.336;2022-09-01T00:13:03;38.50;;;28.08;;
26375;SDS011;30544;42.196;24.336;2022-09-01T00:15:31;40.53;;;28.17;;
26375;SDS011;30544;42.196;24.336;2022-09-01T00:17:59;42.67;;;28.10;;
26375;SDS011;30544;42.196;24.336;2022-09-01T00:20:26;37.55;;;28.38;;
26375;SDS011;30544;42.196;24.336;2022-09-01T00:22:54;36.15;;;26.73;;
26375;SDS011;30544;42.196;24.336;2022-09-01T00:25:21;38.88;;;28.27;;
26375;SDS011;30544;42.196;24.336;2022-09-01T00:27:49;41.00;;;30.83;;
26375;SDS011;30544;42.196;24.336;2022-09-01T00:30:20;34.00;;;25.73;;
26375;SDS011;30544;42.196;24.336;2022-09-01T00:32:47;33.78;;;26.67;;
26375;SDS011;30544;42.196;24.336;2022-09-01T00:35:16;38.97;;;27.73;;
26375;SDS011;30544;42.196;24.336;2022-09-01T00:37:44;36.20;;;27.63;;
26375;SDS011;30544;42.196;24.336;2022-09-01T00:40:11;38.47;;;29.23;;
26375;SDS011;30544;42.196;24.336;2022-09-01T00:42:40;46.10;;;30.88;;
26375;SDS011;30544;42.196;24.336;2022-09-01T00:45:09;44.97;;;29.85;;
26375;SDS011;30544;42.196;24.336;2022-09-01T00:47:36;45.50;;;31.35;;
26375;SDS011;30544;42.196;24.336;2022-09-01T00:50:04;41.20;;;32.78;;
26375;SDS011;30544;42.196;24.336;2022-09-01T00:52:35;38.25;;;30.80;;
26375;SDS011;30544;42.196;24.336;2022-09-01T00:55:07;40.67;;;30.02;;
26375;SDS011;30544;42.196;24.336;2022-09-01T00:57:37;44.10;;;32.67;;
26375;SDS011;30544;42.196;24.336;2022-09-01T01:00:07;39.20;;;32.67;;
26375;SDS011;30544;42.196;24.336;2022-09-01T01:02:36;44.75;;;34.60;;
26375;SDS011;30544;42.196;24.336;2022-09-01T01:05:04;44.05;;;31.10;;
26375;SDS011;30544;42.196;24.336;2022-09-01T01:07:34;40.67;;;33.72;;
26375;SDS011;30544;42.196;24.336;2022-09-01T01:12:36;41.83;;;32.50;;
26375;SDS011;30544;42.196;24.336;2022-09-01T01:15:05;43.72;;;33.53;;
26375;SDS011;30544;42.196;24.336;2022-09-01T01:17:32;40.72;;;31.48;;
26375;SDS011;30544;42.196;24.336;2022-09-01T01:20:00;47.50;;;35.83;;
26375;SDS011;30544;42.196;24.336;2022-09-01T01:22:48;44.05;;;32.78;;
26375;SDS011;30544;42.196;24.336;2022-09-01T01:25:31;35.20;;;29.98;;
26375;SDS011;30544;42.196;24.336;2022-09-01T01:28:04;39.70;;;30.60;;
26375;SDS011;30544;42.196;24.336;2022-09-01T01:30:33;41.50;;;30.80;;
26375;SDS011;30544;42.196;24.336;2022-09-01T01:33:01;38.10;;;29.25;;
26375;SDS011;30544;42.196;24.336;2022-09-01T01:35:29;44.78;;;33.08;;
26375;SDS011;30544;42.196;24.336;2022-09-01T01:37:58;58.83;;;32.55;;
26375;SDS011;30544;42.196;24.336;2022-09-01T01:40:26;62.17;;;34.58;;
26375;SDS011;30544;42.196;24.336;2022-09-01T01:42:56;58.80;;;34.92;;
26375;SDS011;30544;42.196;24.336;2022-09-01T01:45:25;57.55;;;34.85;;
26375;SDS011;30544;42.196;24.336;2022-09-01T01:47:52;48.95;;;37.28;;
26375;SDS011;30544;42.196;24.336;2022-09-01T01:50:21;44.80;;;34.65;;
26375;SDS011;30544;42.196;24.336;2022-09-01T01:52:49;43.53;;;30.38;;
26375;SDS011;30544;42.196;24.336;2022-09-01T01:55:16;48.85;;;34.85;;
26375;SDS011;30544;42.196;24.336;2022-09-01T01:57:43;42.83;;;32.22;;
26375;SDS011;30544;42.196;24.336;2022-09-01T02:00:16;42.28;;;33.60;;
26375;SDS011;30544;42.196;24.336;2022-09-01T02:02:45;44.10;;;33.55;;
26375;SDS011;30544;42.196;24.336;2022-09-01T02:05:16;48.50;;;34.15;;
26375;SDS011;30544;42.196;24.336;2022-09-01T02:07:47;42.95;;;32.08;;
26375;SDS011;30544;42.196;24.336;2022-09-01T02:10:14;44.03;;;33.70;;
26375;SDS011;30544;42.196;24.336;2022-09-01T02:12:41;48.55;;;34.15;;
26375;SDS011;30544;42.196;24.336;2022-09-01T02:15:08;52.63;;;36.95;;
26375;SDS011;30544;42.196;24.336;2022-09-01T02:17:38;46.90;;;33.38;;
26375;SDS011;30544;42.196;24.336;2022-09-01T02:20:07;44.15;;;31.40;;
26375;SDS011;30544;42.196;24.336;2022-09-01T02:22:34;37.65;;;30.48;;
26375;SDS011;30544;42.196;24.336;2022-09-01T02:25:03;42.72;;;31.77;;
26375;SDS011;30544;42.196;24.336;2022-09-01T02:27:30;52.08;;;38.35;;
26375;SDS011;30544;42.196;24.336;2022-09-01T02:29:59;58.15;;;42.47;;
26375;SDS011;30544;42.196;24.336;2022-09-01T02:32:26;44.03;;;34.05;;
26375;SDS011;30544;42.196;24.336;2022-09-01T02:34:54;49.33;;;36.40;;
26375;SDS011;30544;42.196;24.336;2022-09-01T02:37:25;43.80;;;35.20;;
26375;SDS011;30544;42.196;24.336;2022-09-01T02:39:53;45.97;;;34.85;;
26375;SDS011;30544;42.196;24.336;2022-09-01T02:42:22;48.97;;;37.47;;
26375;SDS011;30544;42.196;24.336;2022-09-01T02:44:51;51.72;;;34.28;;
26375;SDS011;30544;42.196;24.336;2022-09-01T02:47:19;47.00;;;33.65;;
26375;SDS011;30544;42.196;24.336;2022-09-01T02:49:47;46.35;;;35.00;;
26375;SDS011;30544;42.196;24.336;2022-09-01T02:52:16;49.50;;;35.35;;
26375;SDS011;30544;42.196;24.336;2022-09-01T02:54:44;44.47;;;33.53;;
26375;SDS011;30544;42.196;24.336;2022-09-01T02:57:13;52.90;;;36.47;;
26375;SDS011;30544;42.196;24.336;2022-09-01T02:59:40;50.17;;;37.03;;
26375;SDS011;30544;42.196;24.336;2022-09-01T03:02:08;46.10;;;33.60;;
26375;SDS011;30544;42.196;24.336;2022-09-01T03:04:35;48.78;;;35.30;;
26375;SDS011;30544;42.196;24.336;2022-09-01T03:07:03;49.08;;;34.63;;
26375;SDS011;30544;42.196;24.336;2022-09-01T03:09:32;45.38;;;35.50;;
26375;SDS011;30544;42.196;24.336;2022-09-01T03:12:01;47.80;;;35.42;;
26375;SDS011;30544;42.196;24.336;2022-09-01T03:14:28;43.47;;;34.47;;
26375;SDS011;30544;42.196;24.336;2022-09-01T03:16:56;43.13;;;32.58;;
26375;SDS011;30544;42.196;24.336;2022-09-01T03:19:24;47.92;;;34.25;;
26375;SDS011;30544;42.196;24.336;2022-09-01T03:21:51;44.92;;;33.88;;
26375;SDS011;30544;42.196;24.336;2022-09-01T03:24:18;39.22;;;31.38;;
26375;SDS011;30544;42.196;24.336;2022-09-01T03:26:49;42.83;;;34.95;;
26375;SDS011;30544;42.196;24.336;2022-09-01T03:29:16;43.08;;;35.50;;
26375;SDS011;30544;42.196;24.336;2022-09-01T03:31:43;53.90;;;34.13;;
26375;SDS011;30544;42.196;24.336;2022-09-01T03:34:10;42.55;;;33.42;;
26375;SDS011;30544;42.196;24.336;2022-09-01T03:36:37;49.40;;;36.40;;
26375;SDS011;30544;42.196;24.336;2022-09-01T03:39:14;41.13;;;31.52;;
26375;SDS011;30544;42.196;24.336;2022-09-01T03:41:41;47.38;;;32.22;;
26375;SDS011;30544;42.196;24.336;2022-09-01T03:44:10;49.88;;;34.17;;
26375;SDS011;30544;42.196;24.336;2022-09-01T03:46:39;45.20;;;31.63;;
26375;SDS011;30544;42.196;24.336;2022-09-01T03:49:07;45.92;;;33.17;;
26375;SDS011;30544;42.196;24.336;2022-09-01T03:51:39;48.58;;;36.95;;
26375;SDS011;30544;42.196;24.336;2022-09-01T03:54:07;49.95;;;33.88;;
26375;SDS011;30544;42.196;24.336;2022-09-01T03:56:34;58.10;;;36.50;;
26375;SDS011;30544;42.196;24.336;2022-09-01T03:59:03;40.22;;;35.13;;
26375;SDS011;30544;42.196;24.336;2022-09-01T04:01:31;49.03;;;36.58;;
26375;SDS011;30544;42.196;24.336;2022-09-01T04:03:58;42.95;;;33.35;;
26375;SDS011;30544;42.196;24.336;2022-09-01T04:06:25;51.05;;;37.17;;
26375;SDS011;30544;42.196;24.336;2022-09-01T04:08:54;45.22;;;33.25;;
26375;SDS011;30544;42.196;24.336;2022-09-01T04:11:27;76.32;;;49.00;;
26375;SDS011;30544;42.196;24.336;2022-09-01T04:13:56;58.95;;;42.40;;
26375;SDS011;30544;42.196;24.336;2022-09-01T04:16:24;62.10;;;40.65;;
26375;SDS011;30544;42.196;24.336;2022-09-01T04:19:11;63.83;;;42.65;;
26375;SDS011;30544;42.196;24.336;2022-09-01T04:21:45;57.20;;;37.42;;
26375;SDS011;30544;42.196;24.336;2022-09-01T04:24:14;42.53;;;31.23;;
26375;SDS011;30544;42.196;24.336;2022-09-01T04:26:43;65.70;;;39.67;;
26375;SDS011;30544;42.196;24.336;2022-09-01T04:29:11;60.22;;;38.53;;
26375;SDS011;30544;42.196;24.336;2022-09-01T04:31:38;49.30;;;32.20;;
26375;SDS011;30544;42.196;24.336;2022-09-01T04:34:06;53.47;;;31.73;;
26375;SDS011;30544;42.196;24.336;2022-09-01T04:36:39;37.85;;;27.65;;
26375;SDS011;30544;42.196;24.336;2022-09-01T04:39:08;40.70;;;27.33;;
26375;SDS011;30544;42.196;24.336;2022-09-01T04:41:37;42.97;;;29.40;;
26375;SDS011;30544;42.196;24.336;2022-09-01T04:44:05;45.08;;;28.17;;
26375;SDS011;30544;42.196;24.336;2022-09-01T04:46:33;47.50;;;30.83;;
26375;SDS011;30544;42.196;24.336;2022-09-01T04:49:05;51.35;;;34.33;;
26375;SDS011;30544;42.196;24.336;2022-09-01T04:51:34;45.08;;;28.00;;
26375;SDS011;30544;42.196;24.336;2022-09-01T04:54:04;62.03;;;33.42;;
26375;SDS011;30544;42.196;24.336;2022-09-01T04:56:37;70.00;;;37.42;;
26375;SDS011;30544;42.196;24.336;2022-09-01T04:59:05;55.50;;;30.60;;
26375;SDS011;30544;42.196;24.336;2022-09-01T05:01:34;76.95;;;39.90;;
26375;SDS011;30544;42.196;24.336;2022-09-01T05:04:07;43.88;;;26.05;;
26375;SDS011;30544;42.196;24.336;2022-09-01T05:06:38;49.00;;;29.70;;
26375;SDS011;30544;42.196;24.336;2022-09-01T05:09:08;40.67;;;26.42;;
26375;SDS011;30544;42.196;24.336;2022-09-01T05:11:36;40.03;;;28.10;;
26375;SDS011;30544;42.196;24.336;2022-09-01T05:14:04;36.17;;;23.75;;
26375;SDS011;30544;42.196;24.336;2022-09-01T05:16:31;46.53;;;27.48;;
26375;SDS011;30544;42.196;24.336;2022-09-01T05:19:00;33.25;;;24.00;;
26375;SDS011;30544;42.196;24.336;2022-09-01T05:21:27;32.72;;;23.17;;
26375;SDS011;30544;42.196;24.336;2022-09-01T05:23:55;41.83;;;25.73;;
26375;SDS011;30544;42.196;24.336;2022-09-01T05:26:27;49.08;;;27.23;;
26375;SDS011;30544;42.196;24.336;2022-09-01T05:28:58;65.40;;;31.90;;
26375;SDS011;30544;42.196;24.336;2022-09-01T05:31:27;40.97;;;26.17;;
26375;SDS011;30544;42.196;24.336;2022-09-01T05:33:58;30.92;;;22.17;;
26375;SDS011;30544;42.196;24.336;2022-09-01T05:36:27;54.60;;;29.00;;
26375;SDS011;30544;42.196;24.336;2022-09-01T05:38:55;134.30;;;64.30;;
26375;SDS011;30544;42.196;24.336;2022-09-01T05:41:23;30.92;;;22.02;;
26375;SDS011;30544;42.196;24.336;2022-09-01T05:43:51;52.95;;;31.17;;
26375;SDS011;30544;42.196;24.336;2022-09-01T05:46:19;38.78;;;24.42;;
26375;SDS011;30544;42.196;24.336;2022-09-01T05:48:48;32.30;;;21.70;;
26375;SDS011;30544;42.196;24.336;2022-09-01T05:51:17;25.80;;;21.33;;
26375;SDS011;30544;42.196;24.336;2022-09-01T05:53:46;37.40;;;19.65;;
26375;SDS011;30544;42.196;24.336;2022-09-01T05:56:15;31.17;;;18.83;;
26375;SDS011;30544;42.196;24.336;2022-09-01T05:58:43;37.85;;;20.05;;
26375;SDS011;30544;42.196;24.336;2022-09-01T06:01:16;27.92;;;21.00;;
26375;SDS011;30544;42.196;24.336;2022-09-01T06:03:46;33.45;;;20.27;;
26375;SDS011;30544;42.196;24.336;2022-09-01T06:06:14;27.45;;;19.60;;
26375;SDS011;30544;42.196;24.336;2022-09-01T06:08:42;31.00;;;20.05;;
26375;SDS011;30544;42.196;24.336;2022-09-01T06:11:09;30.42;;;19.13;;
26375;SDS011;30544;42.196;24.336;2022-09-01T06:13:41;32.17;;;19.15;;
26375;SDS011;30544;42.196;24.336;2022-09-01T06:16:11;29.17;;;19.48;;
26375;SDS011;30544;42.196;24.336;2022-09-01T06:18:41;26.70;;;18.52;;
26375;SDS011;30544;42.196;24.336;2022-09-01T06:21:08;34.17;;;20.15;;
26375;SDS011;30544;42.196;24.336;2022-09-01T06:23:39;23.90;;;19.38;;
26375;SDS011;30544;42.196;24.336;2022-09-01T06:26:07;33.75;;;20.10;;
26375;SDS011;30544;42.196;24.336;2022-09-01T06:28:41;36.60;;;18.30;;
26375;SDS011;30544;42.196;24.336;2022-09-01T06:31:08;30.67;;;17.92;;
26375;SDS011;30544;42.196;24.336;2022-09-01T06:33:36;30.00;;;16.27;;
26375;SDS011;30544;42.196;24.336;2022-09-01T06:36:04;37.00;;;21.58;;
26375;SDS011;30544;42.196;24.336;2022-09-01T06:38:33;28.25;;;18.15;;
26375;SDS011;30544;42.196;24.336;2022-09-01T06:41:02;22.52;;;17.63;;
26375;SDS011;30544;42.196;24.336;2022-09-01T06:43:34;34.58;;;16.63;;
26375;SDS011;30544;42.196;24.336;2022-09-01T06:46:03;30.73;;;16.33;;
26375;SDS011;30544;42.196;24.336;2022-09-01T06:48:30;38.40;;;20.75;;
26375;SDS011;30544;42.196;24.336;2022-09-01T06:50:58;50.83;;;26.17;;
26375;SDS011;30544;42.196;24.336;2022-09-01T06:53:28;31.23;;;14.70;;
26375;SDS011;30544;42.196;24.336;2022-09-01T06:55:56;35.75;;;21.10;;
26375;SDS011;30544;42.196;24.336;2022-09-01T06:58:23;30.38;;;14.27;;
26375;SDS011;30544;42.196;24.336;2022-09-01T07:00:50;25.45;;;14.40;;
26375;SDS011;30544;42.196;24.336;2022-09-01T07:03:17;25.25;;;15.68;;
26375;SDS011;30544;42.196;24.336;2022-09-01T07:05:46;26.92;;;16.70;;
26375;SDS011;30544;42.196;24.336;2022-09-01T07:08:15;27.52;;;15.55;;
26375;SDS011;30544;42.196;24.336;2022-09-01T07:10:48;24.15;;;14.02;;
26375;SDS011;30544;42.196;24.336;2022-09-01T07:13:17;24.58;;;12.40;;
26375;SDS011;30544;42.196;24.336;2022-09-01T07:15:48;19.27;;;13.60;;
26375;SDS011;30544;42.196;24.336;2022-09-01T07:18:16;20.40;;;12.48;;
26375;SDS011;30544;42.196;24.336;2022-09-01T07:20:45;26.90;;;12.95;;
26375;SDS011;30544;42.196;24.336;2022-09-01T07:23:13;24.05;;;12.00;;
26375;SDS011;30544;42.196;24.336;2022-09-01T07:25:41;21.15;;;12.30;;
26375;SDS011;30544;42.196;24.336;2022-09-01T07:28:12;24.27;;;11.85;;
26375;SDS011;30544;42.196;24.336;2022-09-01T07:30:40;29.08;;;12.70;;
26375;SDS011;30544;42.196;24.336;2022-09-01T07:33:09;24.60;;;11.93;;
26375;SDS011;30544;42.196;24.336;2022-09-01T07:35:37;18.70;;;11.95;;
26375;SDS011;30544;42.196;24.336;2022-09-01T07:38:05;18.52;;;12.48;;
26375;SDS011;30544;42.196;24.336;2022-09-01T07:40:33;24.00;;;12.63;;
26375;SDS011;30544;42.196;24.336;2022-09-01T07:43:03;27.00;;;12.18;;
26375;SDS011;30544;42.196;24.336;2022-09-01T07:45:34;22.13;;;12.40;;
26375;SDS011;30544;42.196;24.336;2022-09-01T07:48:04;18.73;;;11.73;;
26375;SDS011;30544;42.196;24.336;2022-09-01T07:50:32;20.20;;;11.80;;
26375;SDS011;30544;42.196;24.336;2022-09-01T07:53:01;36.40;;;21.00;;
26375;SDS011;30544;42.196;24.336;2022-09-01T07:55:28;20.23;;;11.30;;
26375;SDS011;30544;42.196;24.336;2022-09-01T07:57:56;20.05;;;12.38;;
26375;SDS011;30544;42.196;24.336;2022-09-01T08:00:23;16.90;;;10.82;;
26375;SDS011;30544;42.196;24.336;2022-09-01T08:02:53;20.45;;;11.55;;
26375;SDS011;30544;42.196;24.336;2022-09-01T08:05:20;18.67;;;11.63;;
26375;SDS011;30544;42.196;24.336;2022-09-01T08:07:51;31.58;;;17.52;;
26375;SDS011;30544;42.196;24.336;2022-09-01T08:10:18;20.15;;;13.02;;
26375;SDS011;30544;42.196;24.336;2022-09-01T08:12:45;13.35;;;11.07;;
26375;SDS011;30544;42.196;24.336;2022-09-01T08:15:12;19.10;;;10.90;;
26375;SDS011;30544;42.196;24.336;2022-09-01T08:17:41;19.08;;;11.73;;
26375;SDS011;30544;42.196;24.336;2022-09-01T08:20:10;24.45;;;11.63;;
26375;SDS011;30544;42.196;24.336;2022-09-01T08:22:37;18.88;;;11.63;;
26375;SDS011;30544;42.196;24.336;2022-09-01T08:25:04;20.58;;;11.45;;
26375;SDS011;30544;42.196;24.336;2022-09-01T08:27:32;20.45;;;11.52;;
26375;SDS011;30544;42.196;24.336;2022-09-01T08:30:00;13.80;;;11.00;;
26375;SDS011;30544;42.196;24.336;2022-09-01T08:32:29;19.98;;;11.75;;
26375;SDS011;30544;42.196;24.336;2022-09-01T08:34:56;17.98;;;10.90;;
26375;SDS011;30544;42.196;24.336;2022-09-01T08:37:24;17.75;;;9.95;;
26375;SDS011;30544;42.196;24.336;2022-09-01T08:39:51;16.50;;;11.48;;
26375;SDS011;30544;42.196;24.336;2022-09-01T08:42:20;14.95;;;10.07;;
26375;SDS011;30544;42.196;24.336;2022-09-01T08:44:57;16.77;;;9.20;;
26375;SDS011;30544;42.196;24.336;2022-09-01T08:47:28;14.90;;;9.13;;
26375;SDS011;30544;42.196;24.336;2022-09-01T08:49:57;29.85;;;10.32;;
26375;SDS011;30544;42.196;24.336;2022-09-01T08:52:29;17.23;;;10.18;;
26375;SDS011;30544;42.196;24.336;2022-09-01T08:54:59;19.38;;;11.63;;
26375;SDS011;30544;42.196;24.336;2022-09-01T08:57:32;23.40;;;12.65;;
26375;SDS011;30544;42.196;24.336;2022-09-01T09:00:02;18.52;;;10.32;;
26375;SDS011;30544;42.196;24.336;2022-09-01T09:02:35;18.75;;;9.68;;
26375;SDS011;30544;42.196;24.336;2022-09-01T09:05:16;16.67;;;10.27;;
26375;SDS011;30544;42.196;24.336;2022-09-01T09:08:00;26.17;;;11.23;;
26375;SDS011;30544;42.196;24.336;2022-09-01T09:10:37;19.00;;;11.98;;
26375;SDS011;30544;42.196;24.336;2022-09-01T09:13:13;32.53;;;12.43;;
26375;SDS011;30544;42.196;24.336;2022-09-01T09:15:49;18.52;;;11.80;;
26375;SDS011;30544;42.196;24.336;2022-09-01T09:18:22;62.50;;;33.42;;
26375;SDS011;30544;42.196;24.336;2022-09-01T09:20:55;17.75;;;10.98;;
26375;SDS011;30544;42.196;24.336;2022-09-01T09:23:26;17.30;;;11.98;;
26375;SDS011;30544;42.196;24.336;2022-09-01T09:25:59;25.17;;;10.88;;
26375;SDS011;30544;42.196;24.336;2022-09-01T09:28:26;18.00;;;10.98;;
26375;SDS011;30544;42.196;24.336;2022-09-01T09:33:52;17.23;;;10.30;;
26375;SDS011;30544;42.196;24.336;2022-09-01T09:36:19;19.10;;;10.30;;
26375;SDS011;30544;42.196;24.336;2022-09-01T09:39:00;19.52;;;12.85;;
26375;SDS011;30544;42.196;24.336;2022-09-01T09:41:30;22.45;;;14.13;;
26375;SDS011;30544;42.196;24.336;2022-09-01T09:43:59;27.85;;;15.75;;
26375;SDS011;30544;42.196;24.336;2022-09-01T09:46:35;29.27;;;12.90;;
26375;SDS011;30544;42.196;24.336;2022-09-01T09:49:12;25.45;;;9.65;;
26375;SDS011;30544;42.196;24.336;2022-09-01T09:51:45;18.48;;;10.38;;
26375;SDS011;30544;42.196;24.336;2022-09-01T09:54:17;44.28;;;11.27;;
26375;SDS011;30544;42.196;24.336;2022-09-01T09:56:47;20.38;;;11.25;;
26375;SDS011;30544;42.196;24.336;2022-09-01T09:59:16;20.80;;;9.35;;
26375;SDS011;30544;42.196;24.336;2022-09-01T10:01:46;18.17;;;9.80;;
26375;SDS011;30544;42.196;24.336;2022-09-01T10:04:29;30.33;;;10.07;;
26375;SDS011;30544;42.196;24.336;2022-09-01T10:06:58;18.65;;;9.88;;
26375;SDS011;30544;42.196;24.336;2022-09-01T10:09:36;18.60;;;9.02;;
26375;SDS011;30544;42.196;24.336;2022-09-01T10:12:03;34.05;;;10.32;;
26375;SDS011;30544;42.196;24.336;2022-09-01T10:14:32;22.98;;;9.93;;
26375;SDS011;30544;42.196;24.336;2022-09-01T10:17:08;16.83;;;9.90;;
26375;SDS011;30544;42.196;24.336;2022-09-01T10:19:39;17.52;;;10.10;;
26375;SDS011;30544;42.196;24.336;2022-09-01T10:22:12;20.83;;;9.70;;
26375;SDS011;30544;42.196;24.336;2022-09-01T10:24:41;16.02;;;9.68;;
26375;SDS011;30544;42.196;24.336;2022-09-01T10:27:10;18.90;;;10.60;;
26375;SDS011;30544;42.196;24.336;2022-09-01T10:29:43;25.67;;;10.48;;
26375;SDS011;30544;42.196;24.336;2022-09-01T10:32:15;18.23;;;9.90;;
26375;SDS011;30544;42.196;24.336;2022-09-01T10:34:45;20.65;;;9.73;;
26375;SDS011;30544;42.196;24.336;2022-09-01T10:37:14;23.80;;;10.05;;
26375;SDS011;30544;42.196;24.336;2022-09-01T10:42:39;15.75;;;9.88;;
26375;SDS011;30544;42.196;24.336;2022-09-01T10:45:15;21.17;;;9.75;;
26375;SDS011;30544;42.196;24.336;2022-09-01T10:47:45;47.97;;;27.77;;
26375;SDS011;30544;42.196;24.336;2022-09-01T10:55:42;19.27;;;11.15;;
26375;SDS011;30544;42.196;24.336;2022-09-01T10:58:24;15.27;;;10.00;;
26375;SDS011;30544;42.196;24.336;2022-09-01T11:00:59;26.73;;;11.15;;
26375;SDS011;30544;42.196;24.336;2022-09-01T11:03:35;15.30;;;10.43;;
26375;SDS011;30544;42.196;24.336;2022-09-01T11:09:22;26.05;;;14.20;;
26375;SDS011;30544;42.196;24.336;2022-09-01T11:12:01;20.63;;;10.35;;
26375;SDS011;30544;42.196;24.336;2022-09-01T11:14:49;18.27;;;10.07;;
26375;SDS011;30544;42.196;24.336;2022-09-01T11:17:19;19.38;;;10.95;;
26375;SDS011;30544;42.196;24.336;2022-09-01T11:22:56;43.38;;;17.20;;
26375;SDS011;30544;42.196;24.336;2022-09-01T11:25:31;14.77;;;9.63;;
26375;SDS011;30544;42.196;24.336;2022-09-01T11:28:04;17.48;;;8.95;;
26375;SDS011;30544;42.196;24.336;2022-09-01T11:30:36;19.10;;;9.75;;
26375;SDS011;30544;42.196;24.336;2022-09-01T11:33:19;19.92;;;10.15;;
26375;SDS011;30544;42.196;24.336;2022-09-01T11:36:14;22.38;;;10.55;;
26375;SDS011;30544;42.196;24.336;2022-09-01T11:38:49;16.65;;;9.38;;
26375;SDS011;30544;42.196;24.336;2022-09-01T11:41:21;17.13;;;8.75;;
26375;SDS011;30544;42.196;24.336;2022-09-01T11:43:55;25.88;;;10.45;;
26375;SDS011;30544;42.196;24.336;2022-09-01T11:46:26;18.10;;;9.57;;
26375;SDS011;30544;42.196;24.336;2022-09-01T11:48:54;13.70;;;9.23;;
26375;SDS011;30544;42.196;24.336;2022-09-01T11:51:23;20.52;;;9.73;;
26375;SDS011;30544;42.196;24.336;2022-09-01T11:53:50;17.70;;;9.65;;
26375;SDS011;30544;42.196;24.336;2022-09-01T11:56:25;21.00;;;9.52;;
26375;SDS011;30544;42.196;24.336;2022-09-01T11:58:55;19.67;;;9.00;;
26375;SDS011;30544;42.196;24.336;2022-09-01T12:01:22;16.92;;;9.55;;
26375;SDS011;30544;42.196;24.336;2022-09-01T12:03:57;15.18;;;9.68;;
26375;SDS011;30544;42.196;24.336;2022-09-01T12:06:49;23.35;;;9.40;;
26375;SDS011;30544;42.196;24.336;2022-09-01T12:09:19;31.67;;;14.35;;
26375;SDS011;30544;42.196;24.336;2022-09-01T12:11:45;19.20;;;9.75;;
26375;SDS011;30544;42.196;24.336;2022-09-01T12:14:18;19.30;;;9.45;;
26375;SDS011;30544;42.196;24.336;2022-09-01T12:16:54;27.00;;;13.77;;
26375;SDS011;30544;42.196;24.336;2022-09-01T12:19:23;25.63;;;9.18;;
26375;SDS011;30544;42.196;24.336;2022-09-01T12:21:55;24.33;;;11.20;;
26375;SDS011;30544;42.196;24.336;2022-09-01T12:24:25;27.45;;;13.52;;
26375;SDS011;30544;42.196;24.336;2022-09-01T12:26:54;25.00;;;12.48;;
26375;SDS011;30544;42.196;24.336;2022-09-01T12:29:24;19.17;;;11.55;;
26375;SDS011;30544;42.196;24.336;2022-09-01T12:31:51;21.00;;;10.68;;
26375;SDS011;30544;42.196;24.336;2022-09-01T12:34:23;18.52;;;10.25;;
26375;SDS011;30544;42.196;24.336;2022-09-01T12:39:44;20.55;;;11.00;;
26375;SDS011;30544;42.196;24.336;2022-09-01T12:42:21;21.75;;;11.27;;
26375;SDS011;30544;42.196;24.336;2022-09-01T12:44:53;16.27;;;10.73;;
26375;SDS011;30544;42.196;24.336;2022-09-01T12:53:17;23.08;;;10.52;;
26375;SDS011;30544;42.196;24.336;2022-09-01T12:55:53;26.95;;;11.27;;
26375;SDS011;30544;42.196;24.336;2022-09-01T12:58:24;20.60;;;9.93;;
26375;SDS011;30544;42.196;24.336;2022-09-01T13:00:56;22.95;;;9.93;;
26375;SDS011;30544;42.196;24.336;2022-09-01T13:03:25;19.80;;;9.32;;
26375;SDS011;30544;42.196;24.336;2022-09-01T13:05:54;22.48;;;10.00;;
26375;SDS011;30544;42.196;24.336;2022-09-01T13:08:23;26.52;;;9.32;;
26375;SDS011;30544;42.196;24.336;2022-09-01T13:10:53;18.77;;;9.52;;
26375;SDS011;30544;42.196;24.336;2022-09-01T13:13:21;22.10;;;9.60;;
26375;SDS011;30544;42.196;24.336;2022-09-01T13:15:51;21.88;;;9.35;;
26375;SDS011;30544;42.196;24.336;2022-09-01T13:18:21;18.08;;;9.63;;
26375;SDS011;30544;42.196;24.336;2022-09-01T13:20:49;20.05;;;8.60;;
26375;SDS011;30544;42.196;24.336;2022-09-01T13:23:18;21.80;;;9.27;;
26375;SDS011;30544;42.196;24.336;2022-09-01T13:25:46;22.75;;;8.70;;
26375;SDS011;30544;42.196;24.336;2022-09-01T13:28:14;21.63;;;8.98;;
26375;SDS011;30544;42.196;24.336;2022-09-01T13:30:42;15.77;;;8.38;;
26375;SDS011;30544;42.196;24.336;2022-09-01T13:33:13;19.15;;;8.82;;
26375;SDS011;30544;42.196;24.336;2022-09-01T13:35:41;21.73;;;9.38;;
26375;SDS011;30544;42.196;24.336;2022-09-01T13:38:08;17.27;;;8.55;;
26375;SDS011;30544;42.196;24.336;2022-09-01T13:40:35;18.85;;;9.00;;
26375;SDS011;30544;42.196;24.336;2022-09-01T13:43:02;18.15;;;8.25;;
26375;SDS011;30544;42.196;24.336;2022-09-01T13:45:29;24.08;;;8.68;;
26375;SDS011;30544;42.196;24.336;2022-09-01T13:47:56;16.80;;;8.20;;
26375;SDS011;30544;42.196;24.336;2022-09-01T13:50:24;15.23;;;8.77;;
26375;SDS011;30544;42.196;24.336;2022-09-01T13:52:54;24.30;;;8.85;;
26375;SDS011;30544;42.196;24.336;2022-09-01T13:55:23;15.10;;;8.80;;
26375;SDS011;30544;42.196;24.336;2022-09-01T13:57:52;25.55;;;9.05;;
26375;SDS011;30544;42.196;24.336;2022-09-01T14:00:20;25.83;;;9.40;;
26375;SDS011;30544;42.196;24.336;2022-09-01T14:02:49;21.80;;;8.00;;
26375;SDS011;30544;42.196;24.336;2022-09-01T14:05:18;25.10;;;8.18;;
26375;SDS011;30544;42.196;24.336;2022-09-01T14:07:46;20.25;;;8.23;;
26375;SDS011;30544;42.196;24.336;2022-09-01T14:10:15;18.15;;;8.05;;
26375;SDS011;30544;42.196;24.336;2022-09-01T14:12:43;21.98;;;9.02;;
26375;SDS011;30544;42.196;24.336;2022-09-01T14:15:12;20.70;;;7.85;;
26375;SDS011;30544;42.196;24.336;2022-09-01T14:17:43;14.85;;;7.43;;
26375;SDS011;30544;42.196;24.336;2022-09-01T14:20:12;20.10;;;8.00;;
26375;SDS011;30544;42.196;24.336;2022-09-01T14:22:42;22.83;;;7.97;;
26375;SDS011;30544;42.196;24.336;2022-09-01T14:25:09;26.55;;;12.43;;
26375;SDS011;30544;42.196;24.336;2022-09-01T14:27:38;14.40;;;8.18;;
26375;SDS011;30544;42.196;24.336;2022-09-01T14:30:06;18.25;;;8.05;;
26375;SDS011;30544;42.196;24.336;2022-09-01T14:32:35;24.85;;;9.95;;
26375;SDS011;30544;42.196;24.336;2022-09-01T14:35:02;19.98;;;8.45;;
26375;SDS011;30544;42.196;24.336;2022-09-01T14:37:32;16.92;;;8.68;;
26375;SDS011;30544;42.196;24.336;2022-09-01T14:39:59;17.98;;;7.45;;
26375;SDS011;30544;42.196;24.336;2022-09-01T14:42:25;19.20;;;7.88;;
26375;SDS011;30544;42.196;24.336;2022-09-01T14:44:54;15.10;;;8.23;;
26375;SDS011;30544;42.196;24.336;2022-09-01T14:47:21;18.02;;;8.23;;
26375;SDS011;30544;42.196;24.336;2022-09-01T14:49:49;16.65;;;7.45;;
26375;SDS011;30544;42.196;24.336;2022-09-01T14:52:17;21.08;;;7.75;;
26375;SDS011;30544;42.196;24.336;2022-09-01T14:54:45;19.52;;;7.57;;